logo
Search for airport 
image banner adimage banner adimage banner ad
image banner ad

LOGM - Mariazell

Located in District Bruck-Murzzuschlag, Austria

ICAO - LOGM, IATA -

Data provided by Airmate  

General information

Coordinates: N47°47'22" E15°18'1"
Elevation is 2822 feet MSL.
 
View others Airports in Styria

Operational data

Special qualification required
Current time UTC:
Current local time:
Weather at : LOXN - Wr. Neustadt/West ( 69 km )
TAF: TAF LOXN 150515Z 1506/1515 21005KT 9999 FEW050 BKN200 BECMG 1509/1511 30010KT TEMPO 1513/1515 SHRA FEW040CB SCT050 BKN080 PROB40 TEMPO 1513/1515 TSRA
View NOTAMs / SUP AIP / TFR affecting this airport [VIEW]
Communications frequencies: [VIEW]

Runways:

RWY identifierQFULength (ft)Width (ft)SurfaceLDA (ft)
15L164059UNK
33R164059UNK
15R164098UNK
33L164098UNK

Airport contact information

Address: District Bruck-Murzzuschlag Austria

Satellite view of LOGM